Malaviya Twenty — AUEV — position and weather

sailwx.info

Track history (hours):
 
Tides and Currents Weather Stations Pressure Air Temp Water Temp Dewpoint Dewpoint Depression Visibility Wind Speed Wind Dir Waves Ship Positions

Malaviya Twenty

Last reported at 2014-Dec-21 04:20 UTC. Time now 2014-Dec-21 04:46 UTC.
Position N 53°01' E 002°15'.

Length 72 m; draft 4.6 m.

Type: Ship. MMSI: 419504000.

Date/timePositionNaut miles runAvg speedWind from/ knotsBaromVisibWave heightAir tempDewpointWater temp
2014-Dec-21 04:20N 53°01' E 002°15'2 1.9
2014-Dec-21 03:30N 52°60' E 002°16'2 0.1
2014-Dec-20 14:13N 53°01' E 002°16'2 0.9
2014-Dec-20 12:17N 53°01' E 002°13'2 0.6
2014-Dec-20 09:30N 52°59' E 002°12'5 0.7
2014-Dec-20 03:08N 53°01' E 002°19'1 0.5
2014-Dec-20 01:23N 53°01' E 002°17'2 2.0
2014-Dec-20 00:33N 53°01' E 002°15'0 0.1
2014-Dec-19 23:31N 53°01' E 002°15'5 1.9
2014-Dec-19 21:04N 52°57' E 002°09'4 7.8
2014-Dec-19 20:32N 52°55' E 002°04'9 9.1
2014-Dec-19 19:33N 52°48' E 001°54'8 8.5
2014-Dec-19 18:33N 52°41' E 001°46'6 6.4
2014-Dec-19 17:33N 52°35' E 001°44'0 0.1
2014-Dec-19 16:32N 52°35' E 001°44'0 0.1
2014-Dec-19 15:33N 52°35' E 001°44'1 1.0
2014-Dec-19 14:31N 52°36' E 001°44'0 0.0
2014-Dec-19 13:31N 52°36' E 001°44'0 0.0
2014-Dec-19 12:31N 52°36' E 001°44'0 0.0
2014-Dec-19 11:31N 52°36' E 001°44'0 0.1
2014-Dec-19 10:31N 52°35' E 001°44'0 0.0
2014-Dec-19 09:31N 52°35' E 001°44'0 0.0
2014-Dec-19 08:31N 52°35' E 001°44'0 0.0
2014-Dec-19 07:31N 52°35' E 001°44'0 0.1
2014-Dec-19 06:31N 52°36' E 001°44'0 0.0
2014-Dec-19 05:31N 52°36' E 001°44'0 0.0
2014-Dec-19 04:31N 52°36' E 001°44'0 0.0
2014-Dec-19 03:31N 52°36' E 001°44'0 0.0
2014-Dec-19 02:31N 52°36' E 001°44'0 0.0
2014-Dec-19 01:31N 52°36' E 001°44'0 0.0
2014-Dec-19 00:31N 52°36' E 001°44'0 0.0
2014-Dec-18 23:31N 52°36' E 001°44'0 0.0
2014-Dec-18 22:31N 52°36' E 001°44'0 0.0
2014-Dec-18 21:31N 52°36' E 001°44'0 0.0
2014-Dec-18 20:31N 52°36' E 001°44'0 0.0
2014-Dec-18 19:31N 52°36' E 001°44'0 0.0
2014-Dec-18 18:34N 52°36' E 001°44'0 0.0
2014-Dec-18 17:33N 52°36' E 001°44'0 0.0
2014-Dec-18 16:33N 52°36' E 001°44'0 0.0
2014-Dec-18 15:33N 52°36' E 001°44'0 0.0
2014-Dec-18 14:33N 52°36' E 001°44'0 0.0
2014-Dec-18 13:33N 52°36' E 001°44'1 1.5
2014-Dec-18 12:33N 52°34' E 001°45'5 5.3
2014-Dec-18 11:33N 52°40' E 001°46'7 7.0
2014-Dec-18 10:33N 52°47' E 001°43'8 7.6
2014-Dec-18 09:34N 52°53' E 001°36'9 8.6
2014-Dec-18 08:33N 53°01' E 001°29'9 9.4
2014-Dec-18 07:33N 53°10' E 001°28'5 0.2
2014-Dec-17 00:26N 53°15' E 001°28'7 8.4
2014-Dec-16 23:33N 53°08' E 001°28'8 7.8
2014-Dec-16 22:33N 53°00' E 001°30'9 9.2
2014-Dec-16 21:33N 52°52' E 001°37'1111.2
2014-Dec-16 20:33N 52°43' E 001°47'8 7.7
2014-Dec-16 19:33N 52°35' E 001°44'0 0.5
2014-Dec-16 18:31N 52°36' E 001°44'0 0.0
2014-Dec-16 17:31N 52°36' E 001°44'0 0.0
2014-Dec-16 16:31N 52°36' E 001°44'0 0.0
2014-Dec-16 15:31N 52°36' E 001°44'0 0.0
2014-Dec-16 14:31N 52°36' E 001°44'0 0.0
2014-Dec-16 13:31N 52°36' E 001°44'0 0.0
2014-Dec-16 12:31N 52°36' E 001°44'0 0.0
2014-Dec-16 11:31N 52°36' E 001°44'0 0.0
2014-Dec-16 10:31N 52°36' E 001°44'0 0.0
2014-Dec-16 09:31N 52°36' E 001°44'1 1.3
2014-Dec-16 08:33N 52°35' E 001°45'2 1.7
2014-Dec-16 07:33N 52°37' E 001°46'7 7.3
2014-Dec-16 06:33N 52°44' E 001°49'8 8.0
2014-Dec-16 05:33N 52°50' E 001°56'8 7.9
2014-Dec-16 04:33N 52°56' E 002°06'9 8.0
2014-Dec-16 03:28N 53°03' E 002°14'0 0.1
2014-Dec-15 22:33N 53°02' E 002°15'2 0.8
2014-Dec-15 20:30N 53°02' E 002°17'3 0.3
2014-Dec-15 12:25N 53°01' E 002°13'1 0.3
2014-Dec-15 10:11N 53°01' E 002°14'3 0.9
2014-Dec-15 07:14N 52°60' E 002°10'2 1.3
2014-Dec-15 05:21N 53°00' E 002°14'1 1.6
2014-Dec-15 04:30N 53°02' E 002°14'1 1.3
2014-Dec-15 03:29N 53°03' E 002°14'0 0.0
2014-Dec-15 02:31N 53°03' E 002°14'3 1.6
2014-Dec-15 00:30N 52°60' E 002°15'2 2.0
2014-Dec-14 23:21N 53°02' E 002°14'1 0.6
2014-Dec-14 21:24N 53°01' E 002°14'6 4.9
2014-Dec-14 20:09N 52°57' E 002°07'4 6.9
2014-Dec-14 19:32N 52°54' E 002°02'8 8.2
2014-Dec-14 18:33N 52°48' E 001°54'1010.5
2014-Dec-14 17:33N 52°38' E 001°46'3 3.1
2014-Dec-14 16:33N 52°35' E 001°44'0 0.0
2014-Dec-14 15:33N 52°35' E 001°44'0 0.0
2014-Dec-14 14:33N 52°35' E 001°44'1 1.5
2014-Dec-14 13:34N 52°34' E 001°45'5 5.1
2014-Dec-14 12:33N 52°39' E 001°46'8 8.0
2014-Dec-14 11:34N 52°46' E 001°52'9 9.0
2014-Dec-14 10:34N 52°54' E 002°01'10 7.5
2014-Dec-14 09:17N 52°59' E 002°14'1 0.5
2014-Dec-14 08:14N 52°60' E 002°14'1 0.9
2014-Dec-14 07:32N 53°00' E 002°14'0 0.3
2014-Dec-14 06:25N 53°01' E 002°14'0 0.3
2014-Dec-14 05:32N 53°01' E 002°14'2 1.8
2014-Dec-14 04:21N 53°03' E 002°14'0 0.0
2014-Dec-14 03:27N 53°03' E 002°14'1 0.6
2014-Dec-14 02:33N 53°03' E 002°14'6 6.0
2014-Dec-14 01:29N 52°57' E 002°09'7 7.3
2014-Dec-14 00:32N 52°53' E 001°60'9 9.3
2014-Dec-13 23:34N 52°45' E 001°51'9 8.6
2014-Dec-13 22:34N 52°37' E 001°46'2 2.3
2014-Dec-13 21:31N 52°35' E 001°44'0 0.0
2014-Dec-13 20:31N 52°35' E 001°44'0 0.0
2014-Dec-13 19:31N 52°35' E 001°44'0 0.0
2014-Dec-13 18:33N 52°35' E 001°44'1 1.4
2014-Dec-13 17:33N 52°36' E 001°46'7 6.5
2014-Dec-13 16:33N 52°43' E 001°46'7 7.1
2014-Dec-13 15:33N 52°49' E 001°40'7 7.4
2014-Dec-13 14:33N 52°55' E 001°34'8 7.9
2014-Dec-13 13:33N 53°02' E 001°28'10 9.4
2014-Dec-13 12:32N 53°12' E 001°28'  
Track history (hours):
 
Tides and Currents Weather Stations Pressure Air Temp Water Temp Dewpoint Dewpoint Depression Visibility Wind Speed Wind Dir Waves Ship Positions

Malaviya Twenty

Last reported at 2014-Dec-21 04:20 UTC. Time now 2014-Dec-21 04:46 UTC.
Position N 53°01' E 002°15'.

Length 72 m; draft 4.6 m.

Type: Ship. MMSI: 419504000.

Date/timePositionNaut miles runAvg speedWind from/ knotsBaromVisibWave heightAir tempDewpointWater temp
2014-Dec-21 04:20N 53°01' E 002°15'2 1.9
2014-Dec-21 03:30N 52°60' E 002°16'2 0.1
2014-Dec-20 14:13N 53°01' E 002°16'2 0.9
2014-Dec-20 12:17N 53°01' E 002°13'2 0.6
2014-Dec-20 09:30N 52°59' E 002°12'5 0.7
2014-Dec-20 03:08N 53°01' E 002°19'1 0.5
2014-Dec-20 01:23N 53°01' E 002°17'2 2.0
2014-Dec-20 00:33N 53°01' E 002°15'0 0.1
2014-Dec-19 23:31N 53°01' E 002°15'5 1.9
2014-Dec-19 21:04N 52°57' E 002°09'4 7.8
2014-Dec-19 20:32N 52°55' E 002°04'9 9.1
2014-Dec-19 19:33N 52°48' E 001°54'8 8.5
2014-Dec-19 18:33N 52°41' E 001°46'6 6.4
2014-Dec-19 17:33N 52°35' E 001°44'0 0.1
2014-Dec-19 16:32N 52°35' E 001°44'0 0.1
2014-Dec-19 15:33N 52°35' E 001°44'1 1.0
2014-Dec-19 14:31N 52°36' E 001°44'0 0.0
2014-Dec-19 13:31N 52°36' E 001°44'0 0.0
2014-Dec-19 12:31N 52°36' E 001°44'0 0.0
2014-Dec-19 11:31N 52°36' E 001°44'0 0.1
2014-Dec-19 10:31N 52°35' E 001°44'0 0.0
2014-Dec-19 09:31N 52°35' E 001°44'0 0.0
2014-Dec-19 08:31N 52°35' E 001°44'0 0.0
2014-Dec-19 07:31N 52°35' E 001°44'0 0.1
2014-Dec-19 06:31N 52°36' E 001°44'0 0.0
2014-Dec-19 05:31N 52°36' E 001°44'0 0.0
2014-Dec-19 04:31N 52°36' E 001°44'0 0.0
2014-Dec-19 03:31N 52°36' E 001°44'0 0.0
2014-Dec-19 02:31N 52°36' E 001°44'0 0.0
2014-Dec-19 01:31N 52°36' E 001°44'0 0.0
2014-Dec-19 00:31N 52°36' E 001°44'0 0.0
2014-Dec-18 23:31N 52°36' E 001°44'0 0.0
2014-Dec-18 22:31N 52°36' E 001°44'0 0.0
2014-Dec-18 21:31N 52°36' E 001°44'0 0.0
2014-Dec-18 20:31N 52°36' E 001°44'0 0.0
2014-Dec-18 19:31N 52°36' E 001°44'0 0.0
2014-Dec-18 18:34N 52°36' E 001°44'0 0.0
2014-Dec-18 17:33N 52°36' E 001°44'0 0.0
2014-Dec-18 16:33N 52°36' E 001°44'0 0.0
2014-Dec-18 15:33N 52°36' E 001°44'0 0.0
2014-Dec-18 14:33N 52°36' E 001°44'0 0.0
2014-Dec-18 13:33N 52°36' E 001°44'1 1.5
2014-Dec-18 12:33N 52°34' E 001°45'5 5.3
2014-Dec-18 11:33N 52°40' E 001°46'7 7.0
2014-Dec-18 10:33N 52°47' E 001°43'8 7.6
2014-Dec-18 09:34N 52°53' E 001°36'9 8.6
2014-Dec-18 08:33N 53°01' E 001°29'9 9.4
2014-Dec-18 07:33N 53°10' E 001°28'5 0.2
2014-Dec-17 00:26N 53°15' E 001°28'7 8.4
2014-Dec-16 23:33N 53°08' E 001°28'8 7.8
2014-Dec-16 22:33N 53°00' E 001°30'9 9.2
2014-Dec-16 21:33N 52°52' E 001°37'1111.2
2014-Dec-16 20:33N 52°43' E 001°47'8 7.7
2014-Dec-16 19:33N 52°35' E 001°44'0 0.5
2014-Dec-16 18:31N 52°36' E 001°44'0 0.0
2014-Dec-16 17:31N 52°36' E 001°44'0 0.0
2014-Dec-16 16:31N 52°36' E 001°44'0 0.0
2014-Dec-16 15:31N 52°36' E 001°44'0 0.0
2014-Dec-16 14:31N 52°36' E 001°44'0 0.0
2014-Dec-16 13:31N 52°36' E 001°44'0 0.0
2014-Dec-16 12:31N 52°36' E 001°44'0 0.0
2014-Dec-16 11:31N 52°36' E 001°44'0 0.0
2014-Dec-16 10:31N 52°36' E 001°44'0 0.0
2014-Dec-16 09:31N 52°36' E 001°44'1 1.3
2014-Dec-16 08:33N 52°35' E 001°45'2 1.7
2014-Dec-16 07:33N 52°37' E 001°46'7 7.3
2014-Dec-16 06:33N 52°44' E 001°49'8 8.0
2014-Dec-16 05:33N 52°50' E 001°56'8 7.9
2014-Dec-16 04:33N 52°56' E 002°06'9 8.0
2014-Dec-16 03:28N 53°03' E 002°14'0 0.1
2014-Dec-15 22:33N 53°02' E 002°15'2 0.8
2014-Dec-15 20:30N 53°02' E 002°17'3 0.3
2014-Dec-15 12:25N 53°01' E 002°13'1 0.3
2014-Dec-15 10:11N 53°01' E 002°14'3 0.9
2014-Dec-15 07:14N 52°60' E 002°10'2 1.3
2014-Dec-15 05:21N 53°00' E 002°14'1 1.6
2014-Dec-15 04:30N 53°02' E 002°14'1 1.3
2014-Dec-15 03:29N 53°03' E 002°14'0 0.0
2014-Dec-15 02:31N 53°03' E 002°14'3 1.6
2014-Dec-15 00:30N 52°60' E 002°15'2 2.0
2014-Dec-14 23:21N 53°02' E 002°14'1 0.6
2014-Dec-14 21:24N 53°01' E 002°14'6 4.9
2014-Dec-14 20:09N 52°57' E 002°07'4 6.9
2014-Dec-14 19:32N 52°54' E 002°02'8 8.2
2014-Dec-14 18:33N 52°48' E 001°54'1010.5
2014-Dec-14 17:33N 52°38' E 001°46'3 3.1
2014-Dec-14 16:33N 52°35' E 001°44'0 0.0
2014-Dec-14 15:33N 52°35' E 001°44'0 0.0
2014-Dec-14 14:33N 52°35' E 001°44'1 1.5
2014-Dec-14 13:34N 52°34' E 001°45'5 5.1
2014-Dec-14 12:33N 52°39' E 001°46'8 8.0
2014-Dec-14 11:34N 52°46' E 001°52'9 9.0
2014-Dec-14 10:34N 52°54' E 002°01'10 7.5
2014-Dec-14 09:17N 52°59' E 002°14'1 0.5
2014-Dec-14 08:14N 52°60' E 002°14'1 0.9
2014-Dec-14 07:32N 53°00' E 002°14'0 0.3
2014-Dec-14 06:25N 53°01' E 002°14'0 0.3
2014-Dec-14 05:32N 53°01' E 002°14'2 1.8
2014-Dec-14 04:21N 53°03' E 002°14'0 0.0
2014-Dec-14 03:27N 53°03' E 002°14'1 0.6
2014-Dec-14 02:33N 53°03' E 002°14'6 6.0
2014-Dec-14 01:29N 52°57' E 002°09'7 7.3
2014-Dec-14 00:32N 52°53' E 001°60'9 9.3
2014-Dec-13 23:34N 52°45' E 001°51'9 8.6
2014-Dec-13 22:34N 52°37' E 001°46'2 2.3
2014-Dec-13 21:31N 52°35' E 001°44'0 0.0
2014-Dec-13 20:31N 52°35' E 001°44'0 0.0
2014-Dec-13 19:31N 52°35' E 001°44'0 0.0
2014-Dec-13 18:33N 52°35' E 001°44'1 1.4
2014-Dec-13 17:33N 52°36' E 001°46'7 6.5
2014-Dec-13 16:33N 52°43' E 001°46'7 7.1
2014-Dec-13 15:33N 52°49' E 001°40'7 7.4
2014-Dec-13 14:33N 52°55' E 001°34'8 7.9
2014-Dec-13 13:33N 53°02' E 001°28'10 9.4
2014-Dec-13 12:32N 53°12' E 001°28'  

Dump ship's entire track history